Darstellungsparameter: Aktuell verwendete Einstellungen:
Skalierung der Graphiken ... ?
xyx+y,   Skalierungsfaktor:      Skalierung: Modus: x, Faktor: 1
Darstellungszeitraum ... ?
Vom - - bis: - -   Zeitraum: 06.09.2018 - 06.09.2018
Min/Max/Avg-Anzeige ... ?
Zeige MMA aktuell
Zeige MMA Monat
Zeige MMA alles
Zeige --A aktuell
Zeige --A Monat
Zeige --A alles
Keine MMA-Anzeige
MMA:
Minimum Maximum Average (ber die Originaldaten)
MMA-Basis: 23.02.2003 - 07.09.2018
Quicknavigation für Darstellung... ?
Tage:      1T, 2T, 3T, 5T -1T -2T -3T -5T +1T +2T +3T +5T
Wochen: 1W, 2W, 3W -1W -2W -3W +1W +2W +3W
Monate: 1M, 3M, 6M -1M -3M -6M +1M +3M +6M
Jahre:    1J, 3J, 5J, 10J -1J -3J -5J -10J +1J +3J +5J +10J
Nutze für die Darstellung ... ?
Originaldaten oder Mittelwerte auf ...
Stundenbasis Tagesbasis Wochenbasis
Monatsbasis Jahresbasis      Datenbasis: Original-Daten
Darstellen als:
Statistik (Auto) Statistik J:M      Darstellung:
Zur Graphik,    zurück zur Übersicht aller Sensoren.
 
Tabellarische Datenbersicht: ?
 
Sensor: Nr:Datum:Temp:Feuchte:Taupunkt:
Aussen-T/F 1 06-09-2018 00:00:00 17.7 C 82 % 14.59 C
2 06-09-2018 00:05:00 17.7 C 82 % 14.59 C
3 06-09-2018 00:10:00 17.6 C 82 % 14.49 C
4 06-09-2018 00:15:00 17.5 C 83 % 14.58 C
5 06-09-2018 00:20:00 17.4 C 83 % 14.48 C
6 06-09-2018 00:25:00 17.3 C 83 % 14.39 C
7 06-09-2018 00:30:00 17.2 C 84 % 14.47 C
8 06-09-2018 00:35:00 17.1 C 84 % 14.38 C
9 06-09-2018 00:40:00 17 C 84 % 14.28 C
10 06-09-2018 00:45:00 16.9 C 84 % 14.18 C
11 06-09-2018 00:50:00 16.8 C 85 % 14.26 C
12 06-09-2018 00:55:00 16.8 C 85 % 14.26 C
13 06-09-2018 01:00:00 16.7 C 85 % 14.17 C
14 06-09-2018 01:05:00 16.7 C 86 % 14.35 C
15 06-09-2018 01:10:00 16.6 C 86 % 14.25 C
16 06-09-2018 01:15:00 16.5 C 86 % 14.15 C
17 06-09-2018 01:20:00 16.4 C 87 % 14.23 C
18 06-09-2018 01:25:00 16.4 C 87 % 14.23 C
19 06-09-2018 01:30:00 16.3 C 87 % 14.13 C
20 06-09-2018 01:35:00 16.3 C 87 % 14.13 C
21 06-09-2018 01:40:00 16.2 C 87 % 14.03 C
22 06-09-2018 01:45:00 16.2 C 88 % 14.21 C
23 06-09-2018 01:50:00 16.2 C 88 % 14.21 C
24 06-09-2018 01:55:00 16.2 C 88 % 14.21 C
25 06-09-2018 02:00:00 16.1 C 88 % 14.11 C
Sensor: Nr:Datum:Temp:Feuchte:Taupunkt:
Aussen-T/F 26 06-09-2018 02:05:00 16.1 C 88 % 14.11 C
27 06-09-2018 02:10:00 15.9 C 88 % 13.92 C
28 06-09-2018 02:15:00 15.9 C 88 % 13.92 C
29 06-09-2018 02:20:00 15.8 C 89 % 13.99 C
30 06-09-2018 02:25:00 15.8 C 89 % 13.99 C
31 06-09-2018 02:30:00 15.8 C 89 % 13.99 C
32 06-09-2018 02:35:00 15.8 C 90 % 14.16 C
33 06-09-2018 02:40:00 15.8 C 90 % 14.16 C
34 06-09-2018 02:45:00 15.8 C 90 % 14.16 C
35 06-09-2018 02:50:00 15.7 C 89 % 13.89 C
36 06-09-2018 02:55:00 15.6 C 89 % 13.79 C
37 06-09-2018 03:00:00 15.6 C 90 % 13.97 C
38 06-09-2018 03:05:00 15.5 C 90 % 13.87 C
39 06-09-2018 03:10:00 15.4 C 90 % 13.77 C
40 06-09-2018 03:15:00 15.4 C 90 % 13.77 C
41 06-09-2018 03:20:00 15.4 C 91 % 13.94 C
42 06-09-2018 03:25:00 15.4 C 91 % 13.94 C
43 06-09-2018 03:30:00 15.3 C 91 % 13.84 C
44 06-09-2018 03:35:00 15.3 C 91 % 13.84 C
45 06-09-2018 03:40:00 15.2 C 91 % 13.74 C
46 06-09-2018 03:45:00 15.2 C 91 % 13.74 C
47 06-09-2018 03:50:00 15.2 C 91 % 13.74 C
48 06-09-2018 03:55:00 15.2 C 92 % 13.91 C
49 06-09-2018 04:00:00 15.2 C 92 % 13.91 C
50 06-09-2018 04:05:00 15.2 C 92 % 13.91 C
Sensor: Nr:Datum:Temp:Feuchte:Taupunkt:
Aussen-T/F 51 06-09-2018 04:10:00 15.2 C 92 % 13.91 C
52 06-09-2018 04:15:00 15.4 C 93 % 14.27 C
53 06-09-2018 04:20:00 15.7 C 93 % 14.57 C
54 06-09-2018 04:25:00 15.8 C 93 % 14.67 C
55 06-09-2018 04:30:00 15.8 C 93 % 14.67 C
56 06-09-2018 04:35:00 15.8 C 92 % 14.5 C
57 06-09-2018 04:40:00 15.8 C 92 % 14.5 C
58 06-09-2018 04:45:00 15.8 C 92 % 14.5 C
59 06-09-2018 04:50:00 15.7 C 92 % 14.4 C
60 06-09-2018 04:55:00 15.7 C 92 % 14.4 C
61 06-09-2018 05:00:00 15.6 C 92 % 14.31 C
62 06-09-2018 05:05:00 15.5 C 92 % 14.21 C
63 06-09-2018 05:10:00 15.4 C 92 % 14.11 C
64 06-09-2018 05:15:00 15.3 C 92 % 14.01 C
65 06-09-2018 05:20:00 15.3 C 92 % 14.01 C
66 06-09-2018 05:25:00 15.2 C 92 % 13.91 C
67 06-09-2018 05:30:00 15.3 C 92 % 14.01 C
68 06-09-2018 05:35:00 15.2 C 93 % 14.08 C
69 06-09-2018 05:40:00 15.2 C 93 % 14.08 C
70 06-09-2018 05:45:00 15.2 C 92 % 13.91 C
71 06-09-2018 05:50:00 15.1 C 92 % 13.81 C
72 06-09-2018 05:55:00 15 C 92 % 13.71 C
73 06-09-2018 06:00:00 15 C 92 % 13.71 C
74 06-09-2018 06:05:00 15 C 93 % 13.88 C
75 06-09-2018 06:10:00 15.1 C 93 % 13.98 C
Sensor: Nr:Datum:Temp:Feuchte:Taupunkt:
Aussen-T/F 76 06-09-2018 06:15:00 15.2 C 93 % 14.08 C
77 06-09-2018 06:20:00 15.3 C 94 % 14.34 C
78 06-09-2018 06:25:00 15.3 C 94 % 14.34 C
79 06-09-2018 06:30:00 15.4 C 94 % 14.44 C
80 06-09-2018 06:35:00 15.4 C 94 % 14.44 C
81 06-09-2018 06:40:00 15.4 C 93 % 14.27 C
82 06-09-2018 06:45:00 15.5 C 94 % 14.54 C
83 06-09-2018 06:50:00 15.5 C 94 % 14.54 C
84 06-09-2018 06:55:00 15.6 C 94 % 14.64 C
85 06-09-2018 07:00:00 15.6 C 94 % 14.64 C
86 06-09-2018 07:05:00 15.7 C 94 % 14.74 C
87 06-09-2018 07:10:00 15.7 C 94 % 14.74 C
88 06-09-2018 07:15:00 15.8 C 94 % 14.84 C
89 06-09-2018 07:20:00 15.9 C 94 % 14.94 C
90 06-09-2018 07:25:00 16.1 C 94 % 15.13 C
91 06-09-2018 07:30:00 16.1 C 94 % 15.13 C
92 06-09-2018 07:35:00 16.1 C 94 % 15.13 C
93 06-09-2018 07:40:00 16.2 C 94 % 15.23 C
94 06-09-2018 07:45:00 16.2 C 94 % 15.23 C
95 06-09-2018 07:50:00 16.2 C 94 % 15.23 C
96 06-09-2018 07:55:00 16.2 C 94 % 15.23 C
97 06-09-2018 08:00:00 16.3 C 94 % 15.33 C
98 06-09-2018 08:05:00 16.3 C 94 % 15.33 C
99 06-09-2018 08:10:00 16.5 C 95 % 15.7 C
100 06-09-2018 08:15:00 16.6 C 94 % 15.63 C
Sensor: Nr:Datum:Temp:Feuchte:Taupunkt:
Aussen-T/F 101 06-09-2018 08:20:00 16.7 C 95 % 15.9 C
102 06-09-2018 08:25:00 16.8 C 95 % 15.99 C
103 06-09-2018 08:30:00 16.9 C 95 % 16.09 C
104 06-09-2018 08:35:00 17.1 C 95 % 16.29 C
105 06-09-2018 08:40:00 17.2 C 95 % 16.39 C
106 06-09-2018 08:45:00 17.2 C 95 % 16.39 C
107 06-09-2018 08:50:00 17.3 C 95 % 16.49 C
108 06-09-2018 08:55:00 17.4 C 95 % 16.59 C
109 06-09-2018 09:00:00 17.5 C 95 % 16.69 C
110 06-09-2018 09:05:00 17.6 C 95 % 16.79 C
111 06-09-2018 09:10:00 17.6 C 95 % 16.79 C
112 06-09-2018 09:15:00 17.7 C 95 % 16.89 C
113 06-09-2018 09:20:00 17.8 C 95 % 16.99 C
114 06-09-2018 09:25:00 17.9 C 95 % 17.09 C
115 06-09-2018 09:30:00 17.9 C 95 % 17.09 C
116 06-09-2018 09:35:00 18 C 94 % 17.02 C
117 06-09-2018 09:40:00 18.1 C 94 % 17.12 C
118 06-09-2018 09:45:00 18.2 C 94 % 17.22 C
119 06-09-2018 09:50:00 18.3 C 94 % 17.32 C
120 06-09-2018 09:55:00 18.4 C 94 % 17.42 C
121 06-09-2018 10:00:00 18.4 C 93 % 17.25 C
122 06-09-2018 10:05:00 18.4 C 93 % 17.25 C
123 06-09-2018 10:10:00 18.6 C 93 % 17.45 C
124 06-09-2018 10:15:00 18.5 C 91 % 17 C
125 06-09-2018 10:20:00 18.6 C 90 % 16.93 C
Sensor: Nr:Datum:Temp:Feuchte:Taupunkt:
Aussen-T/F 126 06-09-2018 10:25:00 18.7 C 90 % 17.03 C
127 06-09-2018 10:30:00 18.8 C 90 % 17.12 C
128 06-09-2018 10:35:00 18.9 C 88 % 16.87 C
129 06-09-2018 10:40:00 19 C 87 % 16.79 C
130 06-09-2018 10:45:00 19.1 C 87 % 16.89 C
131 06-09-2018 10:50:00 19.2 C 87 % 16.98 C
132 06-09-2018 10:55:00 19.3 C 86 % 16.9 C
133 06-09-2018 11:00:00 19.4 C 85 % 16.81 C
134 06-09-2018 11:05:00 19.6 C 84 % 16.82 C
135 06-09-2018 11:10:00 19.7 C 83 % 16.73 C
136 06-09-2018 11:15:00 19.8 C 84 % 17.02 C
137 06-09-2018 11:20:00 19.9 C 83 % 16.93 C
138 06-09-2018 11:25:00 19.9 C 82 % 16.74 C
139 06-09-2018 11:30:00 19.9 C 82 % 16.74 C
140 06-09-2018 11:35:00 20 C 82 % 16.83 C
141 06-09-2018 11:40:00 20.1 C 82 % 16.93 C
142 06-09-2018 11:45:00 20.3 C 82 % 17.13 C
143 06-09-2018 11:50:00 20.4 C 83 % 17.42 C
144 06-09-2018 11:55:00 20.7 C 81 % 17.32 C
145 06-09-2018 12:00:00 20.8 C 80 % 17.22 C
146 06-09-2018 12:05:00 20.8 C 80 % 17.22 C
147 06-09-2018 12:10:00 20.8 C 79 % 17.02 C
148 06-09-2018 12:15:00 20.7 C 79 % 16.93 C
149 06-09-2018 12:20:00 20.6 C 80 % 17.03 C
150 06-09-2018 12:25:00 20.6 C 82 % 17.42 C
Sensor: Nr:Datum:Temp:Feuchte:Taupunkt:
Aussen-T/F 151 06-09-2018 12:30:00 20.4 C 82 % 17.22 C
152 06-09-2018 12:35:00 20.4 C 83 % 17.42 C
153 06-09-2018 12:40:00 20.6 C 84 % 17.8 C
154 06-09-2018 12:45:00 20.6 C 83 % 17.61 C
155 06-09-2018 12:50:00 20.6 C 83 % 17.61 C
156 06-09-2018 12:55:00 20.7 C 84 % 17.9 C
157 06-09-2018 13:00:00 20.8 C 82 % 17.61 C
158 06-09-2018 13:05:00 20.8 C 81 % 17.42 C
159 06-09-2018 13:10:00 20.9 C 81 % 17.52 C
160 06-09-2018 13:15:00 20.8 C 82 % 17.61 C
161 06-09-2018 13:20:00 20.8 C 82 % 17.61 C
162 06-09-2018 13:25:00 20.8 C 82 % 17.61 C
163 06-09-2018 13:30:00 20.8 C 81 % 17.42 C
164 06-09-2018 13:35:00 20.8 C 82 % 17.61 C
165 06-09-2018 13:40:00 20.8 C 82 % 17.61 C
166 06-09-2018 13:45:00 20.7 C 82 % 17.52 C
167 06-09-2018 13:50:00 20.7 C 82 % 17.52 C
168 06-09-2018 13:55:00 20.8 C 81 % 17.42 C
169 06-09-2018 14:00:00 20.9 C 81 % 17.52 C
170 06-09-2018 14:05:00 21.1 C 80 % 17.51 C
171 06-09-2018 14:10:00 21.1 C 80 % 17.51 C
172 06-09-2018 14:15:00 21.1 C 80 % 17.51 C
173 06-09-2018 14:20:00 21.2 C 79 % 17.41 C
174 06-09-2018 14:25:00 21.2 C 79 % 17.41 C
175 06-09-2018 14:30:00 21.3 C 77 % 17.1 C
Sensor: Nr:Datum:Temp:Feuchte:Taupunkt:
Aussen-T/F 176 06-09-2018 14:35:00 21.5 C 77 % 17.3 C
177 06-09-2018 14:40:00 21.6 C 76 % 17.19 C
178 06-09-2018 14:45:00 21.7 C 76 % 17.28 C
179 06-09-2018 14:50:00 21.7 C 75 % 17.07 C
180 06-09-2018 14:55:00 21.8 C 75 % 17.17 C
181 06-09-2018 15:00:00 21.8 C 75 % 17.17 C
182 06-09-2018 15:05:00 21.8 C 75 % 17.17 C
183 06-09-2018 15:10:00 21.8 C 76 % 17.38 C
184 06-09-2018 15:15:00 21.8 C 75 % 17.17 C
185 06-09-2018 15:20:00 21.7 C 76 % 17.28 C
186 06-09-2018 15:25:00 21.6 C 76 % 17.19 C
187 06-09-2018 15:30:00 21.5 C 76 % 17.09 C
188 06-09-2018 15:35:00 21.4 C 77 % 17.2 C
189 06-09-2018 15:40:00 21.4 C 77 % 17.2 C
190 06-09-2018 15:45:00 21.3 C 76 % 16.9 C
191 06-09-2018 15:50:00 21.3 C 77 % 17.1 C
192 06-09-2018 15:55:00 21.2 C 76 % 16.8 C
193 06-09-2018 16:00:00 21.2 C 77 % 17.01 C
194 06-09-2018 16:05:00 21.1 C 77 % 16.91 C
195 06-09-2018 16:10:00 21.1 C 77 % 16.91 C
196 06-09-2018 16:15:00 21.1 C 78 % 17.11 C
197 06-09-2018 16:20:00 21.1 C 77 % 16.91 C
198 06-09-2018 16:25:00 21.1 C 76 % 16.7 C
199 06-09-2018 16:30:00 21.1 C 76 % 16.7 C
200 06-09-2018 16:35:00 21.2 C 76 % 16.8 C
Sensor: Nr:Datum:Temp:Feuchte:Taupunkt:
Aussen-T/F 201 06-09-2018 16:40:00 21.2 C 77 % 17.01 C
202 06-09-2018 16:45:00 21.3 C 78 % 17.31 C
203 06-09-2018 16:50:00 21.3 C 78 % 17.31 C
204 06-09-2018 16:55:00 21.3 C 78 % 17.31 C
205 06-09-2018 17:00:00 21.3 C 76 % 16.9 C
206 06-09-2018 17:05:00 21.3 C 76 % 16.9 C
207 06-09-2018 17:10:00 21.3 C 77 % 17.1 C
208 06-09-2018 17:15:00 21.3 C 77 % 17.1 C
209 06-09-2018 17:20:00 21.3 C 77 % 17.1 C
210 06-09-2018 17:25:00 21.3 C 77 % 17.1 C
211 06-09-2018 17:30:00 21.3 C 76 % 16.9 C
212 06-09-2018 17:35:00 21.3 C 76 % 16.9 C
213 06-09-2018 17:40:00 21.2 C 76 % 16.8 C
214 06-09-2018 17:45:00 21.2 C 77 % 17.01 C
215 06-09-2018 17:50:00 21.1 C 79 % 17.32 C
216 06-09-2018 17:55:00 20.9 C 80 % 17.32 C
217 06-09-2018 18:00:00 20.8 C 81 % 17.42 C
218 06-09-2018 18:05:00 20.6 C 81 % 17.22 C
219 06-09-2018 18:10:00 20.4 C 82 % 17.22 C
220 06-09-2018 18:15:00 20.3 C 82 % 17.13 C
221 06-09-2018 18:20:00 20.2 C 83 % 17.22 C
222 06-09-2018 18:25:00 20.1 C 84 % 17.31 C
223 06-09-2018 18:30:00 20 C 85 % 17.4 C
224 06-09-2018 18:35:00 19.8 C 86 % 17.39 C
225 06-09-2018 18:40:00 19.6 C 86 % 17.19 C
Sensor: Nr:Datum:Temp:Feuchte:Taupunkt:
Aussen-T/F 226 06-09-2018 18:45:00 19.4 C 87 % 17.18 C
227 06-09-2018 18:50:00 19.2 C 88 % 17.16 C
228 06-09-2018 18:55:00 19.1 C 88 % 17.07 C
229 06-09-2018 19:00:00 18.9 C 89 % 17.05 C
230 06-09-2018 19:05:00 18.8 C 90 % 17.12 C
231 06-09-2018 19:10:00 18.7 C 90 % 17.03 C
232 06-09-2018 19:15:00 18.7 C 91 % 17.2 C
233 06-09-2018 19:20:00 18.7 C 91 % 17.2 C
234 06-09-2018 19:25:00 18.6 C 91 % 17.1 C
235 06-09-2018 19:30:00 18.5 C 91 % 17 C
236 06-09-2018 19:35:00 18.4 C 91 % 16.9 C
237 06-09-2018 19:40:00 18.4 C 92 % 17.08 C
238 06-09-2018 19:45:00 18.3 C 92 % 16.98 C
239 06-09-2018 19:50:00 18.3 C 92 % 16.98 C
240 06-09-2018 19:55:00 18.3 C 92 % 16.98 C
241 06-09-2018 20:00:00 18.2 C 92 % 16.88 C
242 06-09-2018 20:05:00 18.1 C 92 % 16.78 C
243 06-09-2018 20:10:00 18.1 C 92 % 16.78 C
244 06-09-2018 20:15:00 18.1 C 92 % 16.78 C
245 06-09-2018 20:20:00 18 C 92 % 16.68 C
246 06-09-2018 20:25:00 17.9 C 92 % 16.58 C
247 06-09-2018 20:30:00 17.9 C 93 % 16.75 C
248 06-09-2018 20:35:00 17.8 C 93 % 16.65 C
249 06-09-2018 20:40:00 17.8 C 93 % 16.65 C
250 06-09-2018 20:45:00 17.8 C 93 % 16.65 C
Sensor: Nr:Datum:Temp:Feuchte:Taupunkt:
Aussen-T/F 251 06-09-2018 20:50:00 17.7 C 93 % 16.55 C
252 06-09-2018 20:55:00 17.7 C 93 % 16.55 C
253 06-09-2018 21:00:00 17.7 C 94 % 16.72 C
254 06-09-2018 21:05:00 17.7 C 93 % 16.55 C
255 06-09-2018 21:10:00 17.6 C 93 % 16.45 C
256 06-09-2018 21:15:00 17.6 C 94 % 16.62 C
257 06-09-2018 21:20:00 17.5 C 94 % 16.52 C
258 06-09-2018 21:25:00 17.4 C 94 % 16.42 C
259 06-09-2018 21:30:00 17.3 C 93 % 16.16 C
260 06-09-2018 21:35:00 17.2 C 93 % 16.06 C
261 06-09-2018 21:40:00 17.2 C 94 % 16.23 C
262 06-09-2018 21:45:00 17.1 C 94 % 16.13 C
263 06-09-2018 21:50:00 17.1 C 94 % 16.13 C
264 06-09-2018 21:55:00 17 C 94 % 16.03 C
265 06-09-2018 22:00:00 16.9 C 94 % 15.93 C
266 06-09-2018 22:05:00 16.9 C 94 % 15.93 C
267 06-09-2018 22:10:00 16.8 C 94 % 15.83 C
268 06-09-2018 22:15:00 16.8 C 94 % 15.83 C
269 06-09-2018 22:20:00 16.7 C 94 % 15.73 C
270 06-09-2018 22:25:00 16.6 C 94 % 15.63 C
271 06-09-2018 22:30:00 16.6 C 94 % 15.63 C
272 06-09-2018 22:35:00 16.4 C 94 % 15.43 C
273 06-09-2018 22:40:00 16.3 C 94 % 15.33 C
274 06-09-2018 22:45:00 16.3 C 94 % 15.33 C
275 06-09-2018 22:50:00 16.2 C 94 % 15.23 C
Sensor: Nr:Datum:Temp:Feuchte:Taupunkt:
Aussen-T/F 276 06-09-2018 22:55:00 16.2 C 94 % 15.23 C
277 06-09-2018 23:00:00 16.1 C 94 % 15.13 C
278 06-09-2018 23:05:00 16.1 C 94 % 15.13 C
279 06-09-2018 23:10:00 16 C 94 % 15.03 C
280 06-09-2018 23:15:00 15.9 C 94 % 14.94 C
281 06-09-2018 23:20:00 15.9 C 94 % 14.94 C
282 06-09-2018 23:25:00 15.9 C 94 % 14.94 C
283 06-09-2018 23:30:00 16 C 95 % 15.2 C
284 06-09-2018 23:35:00 16.1 C 95 % 15.3 C
285 06-09-2018 23:40:00 16.1 C 95 % 15.3 C
286 06-09-2018 23:45:00 16.2 C 95 % 15.4 C
287 06-09-2018 23:50:00 16.2 C 95 % 15.4 C
288 06-09-2018 23:55:00 16.3 C 95 % 15.5 C

Legende:
   Min
   Max


Maximal/Minimal-Werte vom 23.02.2003 - 07.09.2018

Sensor Min Max Avg
Temp
(Aussen-T/F)
-16.4 °C
20-12-2009  01:30:01
38.6 °C
04-07-2015  16:30:00
11.25 °C
Feuchte
(Aussen-T/F)
18 %
17-07-2015  15:55:00
100 %
07-10-2012  03:05:00
76.59 %

Die Daten stammen von einer Davis Vantage Pro 2 Wetter-Station und werden unter Linux mit der Software wview2wettercgi und aufbereitet. Alle Angaben erfolgen ohne Gewähr für ihre Vollständigkeit oder Richtigkeit.
Kontakt: Rainer Krienke krienke@uni-koblenz.de . Meine Webseiten an der Uni Koblenz oder privat.
Version: $Revision: 0.78 $